• Join FlightAware (Why Join?)
  • Login
  • US Flag 
10:30PM EDT


 

Airport Tracker/Info


-or-


 

Live Flight TrackerFlight Track Log ✈ N137D ✈ 28-Jun-2013 ✈ Y31 - KFWA

Flight Track Log - Related Links

Times and Time Zones

All times are in EDT time to prevent confusion due to time zone crossing. See the N137D flight status page for this flight to view local times or setup timezone preferences in your user account.

Time Position Orientation Groundspeed Altitude Reporting Facility
EDT Latitude Longitude Course Direction KTS MPH feet Rate Location/Type
03:10PM 44.0661 -84.1006 193° South 201 231 4,600  Level Minneapolis Center
03:11PM 44.0178 -84.1131 191° South 166 191 5,400 720 Climbing Minneapolis Center
03:12PM 43.9739 -84.1303 196° South 166 191 6,100 660 Climbing Minneapolis Center
03:13PM 43.9545 -84.2746 193° South  Level Estimated
03:13PM 43.9667 -84.1956 261° West 152 175 6,800  Level Minneapolis Center
03:14PM 43.9060 -84.2898 193° South  Level FlightAware Approximate
03:14PM 43.9650 -84.2489 268° West 150 173 7,500  Level Minneapolis Center
03:15PM 43.8575 -84.3049 193° South  Level FlightAware Approximate
03:15PM 43.9636 -84.3044 268° West 146 168 8,000  Level Minneapolis Center
03:16PM 43.9611 -84.3669 267° West 157 181 8,000  Level Minneapolis Center
03:17PM 43.9369 -84.4433 246° West 187 215 8,000  Level Minneapolis Center
03:18PM 43.9031 -84.4981 229° Southwest 188 216 8,000 -180 Level Minneapolis Center
03:20PM 43.8435 -84.5129 190° South  Level Estimated
03:27PM 43.5011 -84.5979 190° South  Level Estimated
03:28PM 43.4521 -84.6099 190° South  Level Estimated
03:29PM 43.4032 -84.6220 190° South  Level Estimated
03:30PM 43.3543 -84.6340 190° South  Level Estimated
03:31PM 43.3066 -84.6137 163° South  Level FlightAware Approximate
03:32PM 43.2589 -84.5935 163° South  Level FlightAware Approximate
03:33PM 43.2112 -84.5733 163° South  Level FlightAware Approximate
03:34PM 43.1634 -84.5531 163° South  Level FlightAware Approximate
03:35PM 43.1147 -84.5679 193° South  Level Estimated
03:36PM 43.0657 -84.5814 191° South  Level FlightAware Approximate
03:37PM 43.0168 -84.5949 191° South  Level FlightAware Approximate
03:38PM 42.9678 -84.6084 191° South  Level FlightAware Approximate
03:39PM 42.9188 -84.6218 191° South  Level FlightAware Approximate
03:39PM 42.7603 -84.7469 191° South 192 221 4,100  Level Chicago Center
03:40PM 42.8699 -84.6352 191° South  Level FlightAware Approximate
03:40PM 42.7086 -84.7567 188° South 188 216 4,100  Level Chicago Center
03:41PM 42.8209 -84.6486 191° South  Level FlightAware Approximate
03:41PM 42.6556 -84.7700 190° South 192 221 4,100  Level Chicago Center
03:42PM 42.7720 -84.6620 191° South  Level FlightAware Approximate
03:42PM 42.6031 -84.7803 188° South 191 220 4,100  Level Chicago Center
03:43PM 42.7230 -84.6753 191° South  Level FlightAware Approximate
03:43PM 42.5519 -84.7947 192° South 188 216 4,100  Level Chicago Center
03:44PM 42.6740 -84.6887 191° South  Level FlightAware Approximate
03:44PM 42.5036 -84.8467 218° Southwest 187 215 4,100  Level Chicago Center
03:45PM 42.4633 -84.8903 219° Southwest 185 213 4,100  Level Chicago Center
03:46PM 42.4231 -84.9333 218° Southwest 185 213 4,100  Level Chicago Center
03:47PM 42.3828 -84.9758 218° Southwest 184 212 4,100  Level Chicago Center
03:48PM 42.3433 -85.0153 216° Southwest 179 206 4,100  Level Chicago Center
03:49PM 42.2928 -85.0278 186° South 187 215 4,100  Level Chicago Center
03:50PM 42.2864 -85.0068 186° South  Level FlightAware Approximate
03:51PM 42.2333 -85.0314 183° South 187 215 4,100  Level Chicago Center
03:52PM 42.1794 -85.0358 183° South 191 220 4,100  Level Chicago Center
03:53PM 42.1261 -85.0397 183° South 192 221 4,100  Level Chicago Center
03:54PM 42.0717 -85.0392 180° South 194 223 4,100  Level Chicago Center
03:55PM 42.0206 -85.0422 183° South 189 217 4,100  Level Chicago Center
03:56PM 41.9581 -85.0425 180° South 187 215 4,100  Level Chicago Center
03:57PM 41.9047 -85.0442 181° South 189 217 4,100  Level Chicago Center
03:58PM 41.8506 -85.0475 183° South 191 220 4,100  Level Chicago Center
03:59PM 41.7972 -85.0517 183° South 192 221 4,100  Level Chicago Center
04:00PM 41.7450 -85.0542 182° South 190 219 4,100  Level Chicago Center
04:01PM 41.6922 -85.0567 182° South 189 217 4,100  Level Chicago Center
04:02PM 41.6394 -85.0600 183° South 189 217 4,100  Level Chicago Center
04:03PM 41.5750 -85.0650 183° South 191 220 4,100  Level Chicago Center
04:04PM 41.5219 -85.0675 182° South 190 219 4,100  Level Chicago Center
04:05PM 41.4678 -85.0694 182° South 192 221 4,100  Level Chicago Center
04:06PM 41.4136 -85.0711 181° South 193 222 4,100  Level Chicago Center
04:07PM 41.3592 -85.0756 184° South 194 223 4,100  Level Chicago Center
04:08PM 41.3061 -85.0856 188° South 193 222 4,100 -60 Level Chicago Center
04:09PM 41.2525 -85.0964 189° South 193 222 4,000 -360 Descending Chicago Center
04:10PM 41.1872 -85.1167 193° South 196 226 3,400 -540 Descending Chicago Center
04:11PM 41.1308 -85.1325 192° South 202 232 3,000 -420 Descending Chicago Center
04:12PM 41.0817 -85.1361 183° South 192 221 2,600 -480 Descending Chicago Center
04:13PM 41.0411 -85.1392 183° South 167 192 2,100 -360 Descending Chicago Center
04:14PM 41.0028 -85.1456 187° South 163 188 1,900 -240 Descending Chicago Center
04:16PM 40.9667 -85.1833 184° South  Level FlightAware Approximate
04:23PM 40.9785 -85.1952 184° South  Level Estimated